Latest Weather Observations for Nambour

IDQ60901

Issued at 10:41 am EST Saturday 31 January 2015 (issued every 10 minutes, with the page automatically refreshed every 10 minutes)

About weather observations | Map of Brisbane area stations | Latest observations for Brisbane area | Other Formats
Station Details ID: 040988 Name: NAMBOUR DAFF - HILLSIDE Lat: -26.64 Lon: 152.94 Height: 53.24 m
Data from the previous 72 hours. | See also: Recent months at Nambour
Date/Time
EST
Tmp

°C
App
Tmp
°C
Dew
Point
°C
Rel
Hum
%
Delta-T

°C
Wind Press
QNH
hPa
Press
MSL
hPa
Rain
since
9 am
mm
Dir
 
Spd
km/h
Gust
km/h
Spd
kts
Gust
kts
31/10:30am 28.6 29.6 18.7 55 6.4 NNE 11 19 6 10 1008.0 1007.8 0.0
31/10:00am 28.3 28.9 18.7 56 6.2 N 13 19 7 10 1008.3 1008.1 0.0
31/09:30am 27.7 28.8 18.1 56 6.1 N 9 19 5 10 1008.5 1008.2 0.0
31/09:00am 26.8 27.7 18.4 60 5.4 N 11 20 6 11 1008.6 1008.3 0.0
31/08:30am 26.1 27.0 18.5 63 4.8 N 11 19 6 10 1008.7 1008.4 0.0
31/08:00am 25.4 26.8 18.6 66 4.3 N 9 17 5 9 1008.6 1008.3 0.0
31/07:30am 24.4 26.2 18.3 69 3.9 NNE 6 11 3 6 1008.7 1008.4 0.0
31/07:00am 23.4 26.7 19.1 77 2.7 CALM 0 0 0 0 1008.7 1008.4 0.0
31/06:30am 21.4 24.7 19.1 87 1.5 CALM 0 0 0 0 1008.5 1008.2 0.0
31/06:00am 20.1 23.3 18.9 93 0.8 CALM 0 0 0 0 1008.1 1007.9 0.0
31/05:30am 19.1 21.8 17.8 92 0.8 CALM 0 0 0 0 1007.6 1007.4 0.0
31/05:00am 19.6 22.6 18.4 93 0.7 CALM 0 0 0 0 1007.2 1007.0 0.0
31/04:30am 19.9 23.0 18.6 92 0.8 CALM 0 0 0 0 1007.0 1006.8 0.0
31/04:00am 19.8 22.6 17.9 89 1.2 CALM 0 0 0 0 1007.0 1006.8 0.0
31/03:30am 20.6 23.3 18.7 89 1.2 N 2 6 1 3 1006.8 1006.6 0.0
31/03:00am 20.4 23.5 18.7 90 1.1 CALM 0 0 0 0 1006.9 1006.7 0.0
31/02:30am 20.7 23.5 18.8 89 1.2 ENE 2 4 1 2 1006.8 1006.6 0.0
31/02:00am 20.7 23.5 18.8 89 1.2 NNE 2 6 1 3 1006.9 1006.7 0.0
31/01:30am 20.9 23.4 19.0 89 1.2 NNW 4 7 2 4 1007.2 1007.0 0.0
31/01:00am 20.2 22.9 18.7 91 0.9 N 2 6 1 3 1007.7 1007.5 0.0
31/12:30am 19.9 22.5 18.4 91 0.9 N 2 6 1 3 1008.0 1007.8 0.0
31/12:00am 20.3 23.4 18.6 90 1.1 CALM 0 0 0 0 1008.3 1008.1 0.0
 
Date/Time
EST
Tmp

°C
App
Tmp
°C
Dew
Point
°C
Rel
Hum
%
Delta-T

°C
Wind Press
QNH
hPa
Press
MSL
hPa
Rain
since
9 am
mm
Dir
 
Spd
km/h
Gust
km/h
Spd
kts
Gust
kts
30/11:00pm 20.4 23.1 17.8 85 1.6 CALM 0 4 0 2 1008.9 1008.6 0.0
30/10:30pm 20.6 23.6 18.5 88 1.3 CALM 0 0 0 0 1009.0 1008.7 0.0
30/10:00pm 20.9 23.8 18.3 85 1.6 CALM 0 0 0 0 1008.9 1008.6 0.0
30/09:30pm 21.1 24.1 18.5 85 1.6 CALM 0 2 0 1 1008.9 1008.6 0.0
30/09:00pm 20.9 23.1 17.5 81 2.1 WNW 2 4 1 2 1008.8 1008.5 0.0
30/08:30pm 21.7 23.6 17.7 78 2.5 WNW 4 6 2 3 1008.5 1008.2 0.0
30/08:00pm 22.1 24.1 17.9 77 2.6 WNW 4 4 2 2 1008.2 1008.0 0.0
30/07:30pm 22.5 24.4 17.6 74 3.0 WNW 4 6 2 3 1008.1 1007.9 0.0
30/07:00pm 23.6 25.7 17.3 67 3.9 N 2 4 1 2 1008.0 1007.8 0.0
30/06:30pm 24.1 24.9 17.4 66 4.2 NE 9 15 5 8 1007.6 1007.4 0.0
30/06:00pm 24.6 25.4 17.3 64 4.6 ENE 9 15 5 8 1007.4 1007.2 0.0
30/05:30pm 25.2 25.7 17.4 62 4.9 ENE 11 19 6 10 1007.1 1006.9 0.0
30/05:00pm 26.0 27.2 17.4 59 5.4 ENE 7 17 4 9 1006.8 1006.6 0.0
30/04:30pm 26.3 27.4 17.9 60 5.3 NNE 9 13 5 7 1006.8 1006.6 0.0
30/04:00pm 25.7 26.0 17.9 62 4.9 E 13 19 7 10 1006.8 1006.6 0.0
30/03:30pm 25.9 25.9 17.3 59 5.4 E 13 20 7 11 1006.8 1006.6 0.0
30/03:00pm 26.3 26.5 16.8 56 5.9 ENE 11 17 6 9 1007.1 1006.9 0.0
30/02:30pm 26.1 27.1 17.7 60 5.3 ENE 9 17 5 9 1007.4 1007.2 0.0
30/02:00pm 25.5 25.8 16.9 59 5.3 E 11 17 6 9 1007.7 1007.5 0.0
30/01:30pm 26.2 27.0 18.1 61 5.1 E 11 19 6 10 1008.0 1007.8 0.0
30/01:00pm 25.7 25.8 17.4 60 5.2 E 13 19 7 10 1008.5 1008.2 0.0
30/12:30pm 25.6 26.7 18.0 63 4.8 ENE 9 17 5 9 1008.8 1008.5 0.0
30/12:00pm 26.2 27.5 17.6 59 5.4 ENE 7 15 4 8 1009.0 1008.7 0.0
30/11:30am 25.5 26.2 17.9 63 4.8 ENE 11 20 6 11 1009.5 1009.2 0.0
30/11:00am 25.8 27.8 19.2 67 4.3 ENE 7 13 4 7 1009.8 1009.5 0.0
30/10:30am 24.6 27.1 19.0 71 3.6 SE 4 9 2 5 1010.2 1009.9 0.0
30/10:00am 23.4 25.1 18.5 74 3.1 ENE 7 11 4 6 1010.5 1010.2 0.0
30/09:30am 23.7 25.9 18.4 72 3.3 NE 4 9 2 5 1010.3 1010.0 0.0
30/09:00am 23.2 25.6 18.9 77 2.7 ESE 4 9 2 5 1010.4 1010.1 0.6
30/08:30am 22.3 24.8 19.1 82 2.0 SE 4 6 2 3 1010.6 1010.3 0.6
30/08:00am 21.8 24.3 18.2 80 2.3 SE 2 7 1 4 1010.5 1010.2 0.6
30/07:30am 21.5 24.5 19.2 87 1.5 WSW 2 4 1 2 1010.4 1010.1 0.6
30/07:00am 20.8 24.2 19.3 91 1.0 CALM 0 2 0 1 1010.2 1009.9 0.6
30/06:30am 20.3 23.2 19.0 92 0.8 SSW 2 9 1 5 1009.9 1009.6 0.6
30/06:00am 20.2 23.1 19.0 93 0.8 SSW 2 4 1 2 1009.6 1009.3 0.6
30/05:30am 20.3 23.2 19.0 92 0.8 WSW 2 6 1 3 1009.4 1009.1 0.4
30/05:00am 20.5 23.8 19.0 91 0.9 CALM 0 4 0 2 1009.1 1008.8 0.2
30/04:30am 20.8 24.1 19.1 90 1.1 CALM 0 2 0 1 1008.9 1008.6 0.0
30/04:00am 20.8 23.8 19.3 91 1.0 E 2 4 1 2 1008.8 1008.5 0.0
30/03:30am 20.5 23.1 19.2 92 0.8 E 4 6 2 3 1008.8 1008.5 0.0
30/03:00am 20.8 23.7 19.1 90 1.1 WNW 2 4 1 2 1008.6 1008.3 0.0
30/02:30am 20.1 23.2 18.6 91 0.9 CALM 0 0 0 0 1008.6 1008.3 0.0
30/02:00am 20.2 23.2 18.5 90 1.1 CALM 0 0 0 0 1008.8 1008.5 0.0
30/01:30am 20.5 23.7 18.8 90 1.1 CALM 0 0 0 0 1008.9 1008.6 0.0
30/01:00am 20.5 23.2 18.6 89 1.2 S 2 9 1 5 1009.2 1008.9 0.0
30/12:30am 20.7 23.7 18.5 87 1.4 CALM 0 0 0 0 1009.5 1009.2 0.0
30/12:00am 20.8 23.9 18.6 87 1.4 CALM 0 0 0 0 1009.6 1009.3 0.0
 
Date/Time
EST
Tmp

°C
App
Tmp
°C
Dew
Point
°C
Rel
Hum
%
Delta-T

°C
Wind Press
QNH
hPa
Press
MSL
hPa
Rain
since
9 am
mm
Dir
 
Spd
km/h
Gust
km/h
Spd
kts
Gust
kts
29/11:30pm 21.0 24.0 18.4 85 1.6 CALM 0 0 0 0 1009.8 1009.5 0.0
29/11:00pm 20.8 23.5 17.8 83 1.9 CALM 0 0 0 0 1010.0 1009.7 0.0
29/10:30pm 21.5 24.4 18.1 81 2.1 CALM 0 2 0 1 1010.1 1009.8 0.0
29/10:00pm 21.3 24.1 17.9 81 2.1 CALM 0 0 0 0 1010.1 1009.8 0.0
29/09:30pm 22.3 25.2 18.1 77 2.6 CALM 0 0 0 0 1010.1 1009.8 0.0
29/09:00pm 22.2 25.5 19.2 83 1.9 CALM 0 0 0 0 1010.0 1009.7 0.0
29/08:30pm 22.2 25.2 18.4 79 2.4 CALM 0 0 0 0 1009.7 1009.4 0.0
29/08:00pm 22.9 25.8 18.2 75 3.0 CALM 0 0 0 0 1009.5 1009.2 0.0
29/07:30pm 23.3 26.5 18.8 76 2.9 CALM 0 4 0 2 1009.4 1009.1 0.0
29/07:00pm 23.4 26.0 18.3 73 3.2 SSE 2 4 1 2 1009.1 1008.8 0.0
29/06:30pm 24.3 26.7 18.0 68 4.0 SE 2 9 1 5 1008.7 1008.4 0.0
29/06:00pm 24.4 25.9 17.6 66 4.3 SE 6 15 3 8 1008.1 1007.9 0.0
29/05:30pm 24.9 26.4 17.6 64 4.6 ESE 6 11 3 6 1007.7 1007.5 0.0
29/05:00pm 25.2 25.5 17.1 60 5.0 ESE 11 19 6 10 1007.4 1007.2 0.0
29/04:30pm 25.5 26.5 17.7 62 4.9 E 9 15 5 8 1007.1 1006.9 0.0
29/04:00pm 25.8 26.3 17.4 59 5.3 ESE 11 19 6 10 1007.0 1006.8 0.0
29/03:30pm 26.4 26.4 18.0 60 5.3 E 15 20 8 11 1006.9 1006.7 0.0
29/03:00pm 26.8 28.3 18.1 59 5.5 ESE 7 15 4 8 1007.1 1006.9 0.0
29/02:30pm 26.4 28.3 18.5 62 5.0 ESE 6 15 3 8 1007.3 1007.1 0.0
29/02:00pm 25.4 27.1 18.1 64 4.6 ESE 6 15 3 8 1007.6 1007.4 0.0
29/01:30pm 26.1 27.7 18.2 61 5.0 ESE 7 11 4 6 1007.7 1007.5 0.0
29/01:00pm 26.8 28.7 18.6 60 5.3 ESE 6 13 3 7 1007.8 1007.6 0.0
29/12:30pm 25.8 26.6 17.2 59 5.4 SE 9 17 5 9 1008.2 1008.0 0.0
29/12:00pm 26.0 27.1 17.1 58 5.6 ESE 7 17 4 9 1008.3 1008.1 0.0
29/11:30am 25.9 27.1 17.3 59 5.4 SE 7 17 4 9 1008.7 1008.4 0.0
29/11:00am 25.7 26.8 17.1 59 5.4 SE 7 20 4 11 1009.0 1008.7 0.0
29/10:30am 25.1 25.8 17.1 61 5.0 SE 9 22 5 12 1009.3 1009.0 0.0
29/10:00am 25.2 25.9 16.1 57 5.6 SE 7 15 4 8 1009.2 1008.9 0.0
29/09:30am 23.8 24.5 15.6 60 5.0 ESE 6 17 3 9 1009.1 1008.8 0.0
29/09:00am 24.1 25.2 15.6 59 5.1 E 4 13 2 7 1008.9 1008.6 4.2
29/08:30am 23.1 24.0 15.2 61 4.7 S 4 15 2 8 1009.0 1008.7 4.2
29/08:00am 22.8 23.7 15.1 62 4.6 SSW 4 9 2 5 1008.7 1008.4 4.2
29/07:30am 22.3 23.5 15.9 67 3.9 SW 4 9 2 5 1008.8 1008.5 4.2
29/07:00am 21.6 22.7 15.7 69 3.5 S 4 9 2 5 1008.3 1008.1 4.2
29/06:30am 21.5 22.5 15.3 68 3.7 S 4 9 2 5 1008.1 1007.9 4.2
29/06:00am 21.3 22.7 15.4 69 3.5 N 2 7 1 4 1007.6 1007.4 4.2
29/05:30am 21.3 22.6 15.2 68 3.6 S 2 7 1 4 1007.4 1007.2 4.2
29/05:00am 21.3 22.6 15.2 68 3.6 W 2 11 1 6 1007.1 1006.9 4.2
29/04:30am 21.3 22.6 15.2 68 3.6 W 2 6 1 3 1006.8 1006.6 4.2
29/04:00am 21.5 22.8 15.1 67 3.8 SW 2 7 1 4 1006.7 1006.5 4.2
29/03:30am 21.5 22.8 15.1 67 3.8 S 2 9 1 5 1006.7 1006.5 4.2
29/03:00am 21.5 22.9 15.3 68 3.7 W 2 6 1 3 1006.6 1006.4 4.2
29/02:30am 21.8 22.9 15.6 68 3.7 SW 4 9 2 5 1006.7 1006.5 4.2
29/02:00am 21.8 22.8 15.4 67 3.8 SW 4 11 2 6 1006.9 1006.7 4.2
29/01:30am 21.7 23.1 15.3 67 3.8 NNW 2 7 1 4 1007.0 1006.8 4.2
29/01:00am 21.9 23.3 15.5 67 3.8 N 2 6 1 3 1007.1 1006.9 4.2
29/12:30am 21.9 23.4 15.7 68 3.7 NNE 2 6 1 3 1007.4 1007.2 4.2
29/12:00am 22.0 23.2 15.8 68 3.7 SW 4 9 2 5 1007.6 1007.4 4.2
 
Date/Time
EST
Tmp

°C
App
Tmp
°C
Dew
Point
°C
Rel
Hum
%
Delta-T

°C
Wind Press
QNH
hPa
Press
MSL
hPa
Rain
since
9 am
mm
Dir
 
Spd
km/h
Gust
km/h
Spd
kts
Gust
kts
28/11:30pm 22.0 23.7 16.3 70 3.5 ESE 2 7 1 4 1007.8 1007.6 4.2
28/11:00pm 22.1 23.9 16.4 70 3.5 WNW 2 7 1 4 1008.1 1007.9 4.2
28/10:30pm 22.1 24.0 16.6 71 3.4 N 2 4 1 2 1008.2 1008.0 4.2
28/10:00pm 22.2 23.6 16.5 70 3.5 WSW 4 7 2 4 1008.0 1007.8 4.2
28/09:30pm 22.4 23.9 16.7 70 3.5 SSW 4 9 2 5 1007.7 1007.5 4.2
28/09:00pm 22.5 24.5 17.0 71 3.4 ENE 2 6 1 3 1007.9 1007.7 4.2
28/08:30pm 22.5 23.8 17.0 71 3.4 E 6 13 3 7 1007.6 1007.4 4.2
28/08:00pm 22.2 24.2 16.9 72 3.3 SE 2 6 1 3 1007.3 1007.1 4.2
28/07:30pm 22.1 23.9 17.5 75 2.8 W 4 6 2 3 1007.2 1007.0 4.2
28/07:00pm 21.9 23.7 17.5 76 2.7 W 4 13 2 7 1007.1 1006.9 4.2
28/06:30pm 22.1 23.4 17.2 74 3.0 WSW 6 11 3 6 1007.0 1006.8 4.2
28/06:00pm 22.3 23.7 17.4 74 3.0 SW 6 11 3 6 1006.6 1006.4 4.2
28/05:30pm 22.7 24.3 17.8 74 3.1 SSW 6 15 3 8 1006.4 1006.2 4.2
28/05:00pm 23.4 25.6 19.1 77 2.7 S 6 13 3 7 1005.9 1005.7 4.2
28/04:30pm 23.9 26.8 19.8 78 2.6 SSE 4 9 2 5 1005.6 1005.4 4.2
28/04:00pm 23.6 26.7 19.5 78 2.6 SSW 2 6 1 3 1005.5 1005.3 4.2
28/03:30pm 23.1 26.7 19.7 81 2.2 CALM 0 0 0 0 1005.6 1005.4 4.2
28/03:00pm 22.8 26.0 19.8 83 1.9 S 2 4 1 2 1005.9 1005.7 4.2
28/02:30pm 22.5 25.5 19.3 82 2.0 SSW 2 6 1 3 1005.8 1005.6 4.0
28/02:00pm 22.5 25.1 19.3 82 2.0 SW 4 9 2 5 1005.6 1005.4 3.8
28/01:30pm 22.7 25.9 19.7 83 1.9 ENE 2 7 1 4 1005.7 1005.5 3.4
28/01:00pm 22.7 26.0 19.9 84 1.8 W 2 6 1 3 1006.2 1006.0 2.4
28/12:30pm 22.3 25.9 19.7 85 1.7 CALM 0 7 0 4 1006.4 1006.2 2.0
28/12:00pm 22.4 25.3 19.0 81 2.2 SSE 2 6 1 3 1006.2 1006.0 0.6
28/11:30am 22.8 25.6 18.8 78 2.5 SW 2 9 1 5 1006.8 1006.6 0.0
28/11:00am 23.6 25.8 18.3 72 3.3 WSW 4 11 2 6 1006.6 1006.4 0.0

Latest Capital City Observations: Canberra | Sydney | Melbourne | Brisbane | Adelaide | Perth | Hobart | Darwin

Other Formats:

Comma delimited format used in spreadsheet applications
http://www.bom.gov.au/fwo/IDQ60901/IDQ60901.95572.axf

JavaScript Object Notation format (JSON) in row-major order
http://www.bom.gov.au/fwo/IDQ60901/IDQ60901.95572.json